Kunszentmarton, Hungary
Current Conditions -  °F | °C
As of 5:45 PM on Wednesday 28 Jan 2015 (Local Time) from LHSN Reporting Station
Few Clouds Few Clouds  
Wind Chill: 37°   Ceiling: Unl
Heat Index: 37°   Visibility: 6mi
Dew Point: 27°   Wind: 2mph
Humidity: 65%   Direction: 260°W
Pressure: 29.94"   Gusts: NA
Location:  46.84°N, 20.29°E
Report Text: LHSN 281545Z 26002KT 9999 FEW040 03/M03 Q1014 NOSIG RMK BLU
Loading
Personal Weather Stations






























Interactive Weather Map New forecast layout! Learn more

10-Day Weather Forecast

Advertisements
Track Severe Weather on mobile